Time;durP1;ratioP1;P1;durP2;ratioP2;P2;SDS_P1;SDS_P2;PMS_P1;PMS_P2;Temp;Humidity;BMP_temperature;BMP_pressure;BME280_temperature;BME280_humidity;BME280_pressure;Samples;Min_cycle;Max_cycle;Signal;HPM_P1;HPM_P2
2023/10/03 00:01:37;;;;;;;46.45;19.33;;;15.90;99.90;;;;;;5021090;28;20099;-75
2023/10/03 00:04:04;;;;;;;37.10;17.33;;;15.90;99.90;;;;;;5026777;28;20062;-75
2023/10/03 00:06:33;;;;;;;47.35;19.13;;;15.80;99.90;;;;;;5026027;28;20034;-75
2023/10/03 00:08:59;;;;;;;47.38;18.85;;;15.80;99.90;;;;;;5025005;28;20032;-75
2023/10/03 00:11:25;;;;;;;40.22;17.70;;;15.70;99.90;;;;;;5027922;28;20656;-75
2023/10/03 00:13:50;;;;;;;42.38;19.15;;;15.70;99.90;;;;;;5025734;28;20049;-75
2023/10/03 00:16:17;;;;;;;43.38;19.45;;;15.70;99.90;;;;;;5022099;28;20392;-75
2023/10/03 00:18:43;;;;;;;41.60;18.35;;;15.60;99.90;;;;;;5026968;28;20146;-75
2023/10/03 00:21:09;;;;;;;42.13;17.95;;;15.60;99.90;;;;;;5026908;28;20437;-75
2023/10/03 00:23:34;;;;;;;47.65;18.60;;;15.50;99.90;;;;;;5030973;28;20110;-75
2023/10/03 00:26:04;;;;;;;43.50;18.17;;;15.50;99.90;;;;;;5027604;28;20017;-75
2023/10/03 00:28:33;;;;;;;39.40;17.67;;;15.40;99.90;;;;;;5030353;28;20112;-76
2023/10/03 00:30:59;;;;;;;43.53;18.15;;;15.40;99.90;;;;;;5030841;28;20433;-75
2023/10/03 00:33:26;;;;;;;46.03;18.48;;;15.30;99.90;;;;;;5032492;28;20037;-75
2023/10/03 00:35:55;;;;;;;42.08;18.35;;;15.40;99.90;;;;;;5026421;28;20032;-75
2023/10/03 00:38:22;;;;;;;44.33;17.83;;;15.30;99.90;;;;;;5021293;28;20029;-75
2023/10/03 00:40:53;;;;;;;46.25;19.17;;;15.30;99.90;;;;;;5029791;28;20026;-77
2023/10/03 00:43:19;;;;;;;47.75;19.20;;;15.30;99.90;;;;;;5033644;28;20030;-77
2023/10/03 00:45:51;;;;;;;44.42;19.05;;;15.30;99.90;;;;;;5036994;28;20053;-76
2023/10/03 00:48:18;;;;;;;45.88;18.90;;;15.30;99.90;;;;;;5033140;28;20052;-77
2023/10/03 00:50:48;;;;;;;47.13;19.38;;;15.30;99.90;;;;;;5036783;28;20509;-77
2023/10/03 00:53:19;;;;;;;47.05;19.83;;;15.30;99.90;;;;;;5034432;28;20033;-76
2023/10/03 00:55:48;;;;;;;48.17;20.73;;;15.30;99.90;;;;;;5049411;28;20051;-76
2023/10/03 00:58:27;;;;;;;44.80;18.85;;;15.20;99.90;;;;;;5033375;28;20029;-76
2023/10/03 01:00:57;;;;;;;48.88;19.52;;;15.20;99.90;;;;;;5032711;28;20025;-77
2023/10/03 01:03:38;;;;;;;43.42;18.98;;;15.20;99.90;;;;;;5029370;28;20025;-77
2023/10/03 01:06:09;;;;;;;47.15;18.83;;;15.10;99.90;;;;;;5030471;28;20026;-77
2023/10/03 01:08:55;;;;;;;47.28;18.38;;;15.10;99.90;;;;;;5048179;28;21060;-77
2023/10/03 01:11:25;;;;;;;45.92;18.27;;;15.10;99.90;;;;;;5029553;28;20408;-76
2023/10/03 01:13:58;;;;;;;41.30;17.98;;;15.10;99.90;;;;;;5029394;28;20036;-77
2023/10/03 01:16:29;;;;;;;38.42;16.92;;;15.00;99.90;;;;;;5031396;28;20112;-77
2023/10/03 01:18:59;;;;;;;44.70;17.35;;;15.00;99.90;;;;;;5034068;28;20013;-78
2023/10/03 01:21:28;;;;;;;40.85;18.25;;;15.00;99.90;;;;;;5032027;28;20018;-76
2023/10/03 01:23:57;;;;;;;41.05;18.05;;;15.00;99.90;;;;;;5045228;28;20044;-76
2023/10/03 01:26:24;;;;;;;44.83;18.98;;;14.90;99.90;;;;;;5027917;28;20484;-76
2023/10/03 01:28:50;;;;;;;39.40;17.92;;;14.90;99.90;;;;;;5030463;28;20056;-76
2023/10/03 01:31:18;;;;;;;42.45;17.67;;;14.90;99.90;;;;;;5027275;28;20115;-77
2023/10/03 01:33:45;;;;;;;44.25;19.05;;;14.80;99.90;;;;;;5029101;28;20025;-76
2023/10/03 01:36:14;;;;;;;37.28;17.55;;;14.80;99.90;;;;;;5031292;28;20040;-76
2023/10/03 01:38:42;;;;;;;43.78;18.92;;;14.80;99.90;;;;;;5030784;28;20491;-76
2023/10/03 01:41:08;;;;;;;44.30;17.98;;;14.80;99.90;;;;;;5030366;28;20018;-76
2023/10/03 01:43:34;;;;;;;44.58;19.02;;;14.80;99.90;;;;;;5028755;28;20029;-76
2023/10/03 01:46:02;;;;;;;44.75;18.65;;;14.80;99.90;;;;;;5030343;28;20018;-77
2023/10/03 01:48:28;;;;;;;43.15;19.65;;;14.80;99.90;;;;;;5031189;28;20026;-77
2023/10/03 01:50:57;;;;;;;44.75;18.15;;;14.80;99.90;;;;;;5030245;28;20079;-77
2023/10/03 01:53:23;;;;;;;43.90;17.98;;;14.70;99.90;;;;;;5031655;28;20028;-77
2023/10/03 01:55:49;;;;;;;41.35;17.52;;;14.80;99.90;;;;;;5029804;28;20758;-77
2023/10/03 01:58:15;;;;;;;42.13;18.83;;;14.70;99.90;;;;;;5026744;28;20021;-75
2023/10/03 02:00:41;;;;;;;39.88;16.63;;;14.70;99.90;;;;;;5027708;28;20373;-76
2023/10/03 02:03:12;;;;;;;42.55;17.88;;;14.70;99.90;;;;;;5027660;28;20036;-76
2023/10/03 02:05:38;;;;;;;43.75;18.63;;;14.70;99.90;;;;;;5027627;28;20025;-76
2023/10/03 02:08:08;;;;;;;41.55;18.38;;;14.70;99.90;;;;;;5028211;28;20057;-76
2023/10/03 02:10:36;;;;;;;39.80;17.42;;;14.60;99.90;;;;;;5029000;28;20028;-76
2023/10/03 02:13:09;;;;;;;41.60;17.92;;;14.60;99.90;;;;;;5028906;28;20033;-76
2023/10/03 02:15:42;;;;;;;42.70;18.27;;;14.60;99.90;;;;;;5029188;28;20048;-76
2023/10/03 02:18:12;;;;;;;41.13;17.05;;;14.50;99.90;;;;;;5028871;28;20091;-77
2023/10/03 02:20:53;;;;;;;41.38;18.35;;;14.60;99.90;;;;;;5029764;28;20469;-77
2023/10/03 02:23:23;;;;;;;47.67;19.70;;;14.50;99.90;;;;;;5028050;28;20028;-78
2023/10/03 02:25:50;;;;;;;44.97;18.83;;;14.50;99.90;;;;;;5030974;28;20037;-77
2023/10/03 02:28:16;;;;;;;39.33;17.33;;;14.50;99.90;;;;;;5029625;28;20033;-77
2023/10/03 02:30:50;;;;;;;40.92;17.38;;;14.50;99.90;;;;;;5032569;28;20607;-77
2023/10/03 02:33:17;;;;;;;;;;;14.50;99.90;;;;;;5029346;28;20028;-77
2023/10/03 02:35:52;;;;;;;39.83;16.67;;;14.40;99.90;;;;;;5028829;28;19913;-77
2023/10/03 02:38:25;;;;;;;;;;;;;;;;;;;;;
2023/10/03 02:40:57;;;;;;;41.30;17.02;;;14.40;99.90;;;;;;5030631;28;20065;-77
2023/10/03 02:43:24;;;;;;;41.08;17.73;;;14.40;99.90;;;;;;5028736;28;20024;-77
2023/10/03 02:45:50;;;;;;;44.30;18.85;;;14.40;99.90;;;;;;5030518;28;20136;-78
2023/10/03 02:48:16;;;;;;;44.25;17.45;;;14.40;99.90;;;;;;5028589;28;20373;-78
2023/10/03 02:50:42;;;;;;;41.53;16.65;;;14.40;99.90;;;;;;5029996;28;20030;-77
2023/10/03 02:53:14;;;;;;;39.58;15.88;;;14.30;99.90;;;;;;5030455;28;20422;-77
2023/10/03 02:55:41;;;;;;;42.88;17.65;;;14.40;99.90;;;;;;5049992;22;20052;-71
2023/10/03 02:58:08;;;;;;;42.40;16.70;;;14.30;99.90;;;;;;5025480;28;20105;-72
2023/10/03 03:00:35;;;;;;;39.58;16.27;;;14.30;99.90;;;;;;5023902;28;20419;-72
2023/10/03 03:03:02;;;;;;;36.45;15.38;;;14.30;99.90;;;;;;5020292;28;20025;-72
2023/10/03 03:05:35;;;;;;;36.28;14.93;;;14.30;99.90;;;;;;5022857;28;20132;-72
2023/10/03 03:10:49;;;;;;;40.13;15.60;;;14.30;99.90;;;;;;5009923;28;20511;-72
2023/10/03 03:13:19;;;;;;;40.40;16.45;;;14.30;99.90;;;;;;5007264;28;20033;-72
2023/10/03 03:15:59;;;;;;;39.03;16.00;;;14.30;99.90;;;;;;5008561;28;20022;-72
2023/10/03 03:18:31;;;;;;;41.03;16.25;;;14.30;99.90;;;;;;5023617;28;20042;-72
2023/10/03 03:20:58;;;;;;;41.25;17.67;;;14.30;99.90;;;;;;5003987;28;20084;-72
2023/10/03 03:23:35;;;;;;;35.33;15.05;;;14.30;99.90;;;;;;5007097;28;20022;-72
2023/10/03 03:26:18;;;;;;;33.17;15.60;;;14.30;99.90;;;;;;5009389;28;20104;-73
2023/10/03 03:28:53;;;;;;;37.08;15.95;;;14.30;99.90;;;;;;5012072;28;20038;-73
2023/10/03 03:31:22;;;;;;;38.45;15.52;;;14.30;99.90;;;;;;5009520;28;20033;-72
2023/10/03 03:33:57;;;;;;;35.22;15.55;;;14.20;99.90;;;;;;5004791;28;20021;-72
2023/10/03 03:36:29;;;;;;;38.55;16.35;;;14.20;99.90;;;;;;5006324;28;20030;-72
2023/10/03 03:38:56;;;;;;;39.60;14.05;;;14.20;99.90;;;;;;5007461;28;20026;-72
2023/10/03 03:41:22;;;;;;;36.83;16.13;;;14.20;99.90;;;;;;5009530;28;20052;-72
2023/10/03 03:43:52;;;;;;;39.05;16.83;;;14.20;99.90;;;;;;5005309;28;20057;-72
2023/10/03 03:46:19;;;;;;;36.92;16.70;;;14.20;99.90;;;;;;5009735;28;20022;-72
2023/10/03 03:48:45;;;;;;;39.05;15.45;;;14.20;99.90;;;;;;5006644;28;20023;-72
2023/10/03 03:51:11;;;;;;;35.83;15.25;;;14.20;99.90;;;;;;5004641;28;20030;-71
2023/10/03 03:53:46;;;;;;;35.20;15.20;;;14.20;99.90;;;;;;5005694;28;20080;-72
2023/10/03 03:56:16;;;;;;;36.72;16.02;;;14.20;99.90;;;;;;5007717;28;20034;-72
2023/10/03 03:58:44;;;;;;;36.03;15.35;;;14.20;99.90;;;;;;5009578;28;20029;-72
2023/10/03 04:01:23;;;;;;;39.88;15.60;;;14.20;99.90;;;;;;5009643;28;20014;-73
2023/10/03 04:03:53;;;;;;;32.15;14.05;;;14.20;99.90;;;;;;5009739;28;20177;-73
2023/10/03 04:06:25;;;;;;;33.33;13.90;;;14.10;99.90;;;;;;5009328;28;20531;-72
2023/10/03 04:09:05;;;;;;;34.50;14.70;;;14.20;99.90;;;;;;5010180;28;20033;-72
2023/10/03 04:11:32;;;;;;;31.92;15.38;;;14.20;99.90;;;;;;5013401;28;20022;-72
2023/10/03 04:13:59;;;;;;;36.63;14.73;;;14.20;99.90;;;;;;5008364;28;20029;-72
2023/10/03 04:16:28;;;;;;;29.52;13.43;;;14.20;99.90;;;;;;5026822;28;20065;-73
2023/10/03 04:19:00;;;;;;;33.00;13.77;;;14.20;99.90;;;;;;5011504;28;20388;-72
2023/10/03 04:21:27;;;;;;;38.60;14.68;;;14.20;99.90;;;;;;5011957;28;20018;-73
2023/10/03 04:23:53;;;;;;;34.42;14.20;;;14.20;99.90;;;;;;5010269;28;20028;-72
2023/10/03 04:26:19;;;;;;;31.60;14.68;;;14.30;99.90;;;;;;5010477;28;20471;-73
2023/10/03 04:28:47;;;;;;;37.72;14.93;;;14.20;99.90;;;;;;5008406;28;20109;-73
2023/10/03 04:31:16;;;;;;;30.00;13.70;;;14.30;99.90;;;;;;5007785;28;20057;-72
2023/10/03 04:33:44;;;;;;;32.90;14.20;;;14.30;99.90;;;;;;5009838;28;20045;-73
2023/10/03 04:36:14;;;;;;;34.28;14.48;;;14.30;99.90;;;;;;5011352;28;20121;-73
2023/10/03 04:38:40;;;;;;;35.92;14.15;;;14.30;99.90;;;;;;5010250;28;20400;-73
2023/10/03 04:41:09;;;;;;;33.83;14.65;;;14.30;99.90;;;;;;5025944;28;20022;-73
2023/10/03 04:43:35;;;;;;;32.10;13.10;;;14.30;99.90;;;;;;5003354;28;20073;-73
2023/10/03 04:46:04;;;;;;;31.60;13.38;;;14.40;99.90;;;;;;5007781;28;20032;-73
2023/10/03 04:48:42;;;;;;;25.85;12.52;;;14.40;99.90;;;;;;5010830;28;20101;-73
2023/10/03 04:51:07;;;;;;;31.10;13.45;;;14.40;99.90;;;;;;5011261;28;20018;-73
2023/10/03 04:53:33;;;;;;;33.30;12.85;;;14.40;99.90;;;;;;5012895;28;20442;-73
2023/10/03 04:56:11;;;;;;;31.08;11.77;;;14.50;99.90;;;;;;5007243;28;20080;-73
2023/10/03 04:58:43;;;;;;;33.33;12.88;;;14.50;99.90;;;;;;5006162;28;20041;-73
2023/10/03 05:01:14;;;;;;;28.88;12.65;;;14.60;99.90;;;;;;5008996;28;20107;-72
2023/10/03 05:03:46;;;;;;;31.52;12.85;;;14.50;99.90;;;;;;5002329;28;20033;-73
2023/10/03 05:06:14;;;;;;;28.92;13.65;;;14.60;99.90;;;;;;5008552;28;20502;-73
2023/10/03 05:08:42;;;;;;;25.98;12.38;;;14.60;99.90;;;;;;5019251;28;20950;-72
2023/10/03 05:11:13;;;;;;;25.95;12.65;;;14.60;99.90;;;;;;5010119;28;20077;-72
2023/10/03 05:13:50;;;;;;;31.88;13.25;;;14.60;99.90;;;;;;5006367;28;20528;-72
2023/10/03 05:16:19;;;;;;;33.65;13.82;;;14.60;99.90;;;;;;5011820;28;20365;-74
2023/10/03 05:18:44;;;;;;;26.30;12.60;;;14.60;99.90;;;;;;5009791;28;20049;-73
2023/10/03 05:21:10;;;;;;;27.45;13.82;;;14.70;99.90;;;;;;5008863;28;20525;-74
2023/10/03 05:23:41;;;;;;;30.25;13.13;;;14.60;99.90;;;;;;5012588;28;20026;-73
2023/10/03 05:26:25;;;;;;;30.15;13.80;;;14.70;99.90;;;;;;5011668;28;20096;-73
2023/10/03 05:28:55;;;;;;;29.48;12.65;;;14.70;99.90;;;;;;5024302;28;20124;-73
2023/10/03 05:31:22;;;;;;;31.20;11.98;;;14.70;99.90;;;;;;5008335;28;20091;-73
2023/10/03 05:33:48;;;;;;;29.10;12.55;;;14.70;99.90;;;;;;5029143;28;20022;-73
2023/10/03 05:36:16;;;;;;;33.85;13.80;;;14.70;99.90;;;;;;5010919;28;20030;-73
2023/10/03 05:38:45;;;;;;;32.60;14.27;;;14.60;99.90;;;;;;5010448;28;20022;-72
2023/10/03 05:41:23;;;;;;;35.75;13.60;;;14.70;99.90;;;;;;5010902;28;20508;-72
2023/10/03 05:43:54;;;;;;;30.23;12.80;;;14.60;99.90;;;;;;5012000;28;20049;-73
2023/10/03 05:46:20;;;;;;;27.65;11.93;;;14.70;99.90;;;;;;5011803;28;20053;-73
2023/10/03 05:49:10;;;;;;;31.15;13.57;;;14.70;99.90;;;;;;5008084;28;20622;-72
2023/10/03 05:51:36;;;;;;;28.83;12.88;;;14.70;99.90;;;;;;5008181;28;20058;-73
2023/10/03 05:54:04;;;;;;;28.95;12.80;;;14.70;99.90;;;;;;5000972;28;20108;-73
2023/10/03 05:56:30;;;;;;;31.17;12.73;;;14.70;99.90;;;;;;5008829;28;20373;-72
2023/10/03 05:59:15;;;;;;;27.83;12.10;;;14.70;99.90;;;;;;5011399;28;20116;-72
2023/10/03 06:01:53;;;;;;;31.33;12.85;;;14.70;99.90;;;;;;5012375;28;20026;-72
2023/10/03 06:04:18;;;;;;;25.77;11.93;;;14.70;99.90;;;;;;5023184;28;20109;-73
2023/10/03 06:06:47;;;;;;;27.90;12.57;;;14.70;99.90;;;;;;5009154;28;20117;-71
2023/10/03 06:09:23;;;;;;;31.38;13.13;;;14.80;99.90;;;;;;5010518;28;20046;-72
2023/10/03 06:11:55;;;;;;;29.77;13.18;;;14.80;99.90;;;;;;5009103;28;20026;-72
2023/10/03 06:14:26;;;;;;;29.10;13.15;;;14.80;99.90;;;;;;5010685;28;20033;-72
2023/10/03 06:16:52;;;;;;;28.52;13.10;;;14.80;99.90;;;;;;5012517;28;20060;-73
2023/10/03 06:19:20;;;;;;;29.95;11.77;;;14.90;99.90;;;;;;5002108;28;20458;-72
2023/10/03 06:21:49;;;;;;;28.63;13.13;;;14.90;99.90;;;;;;5027282;28;20022;-72
2023/10/03 06:24:18;;;;;;;32.42;13.63;;;14.90;99.90;;;;;;5009231;28;20365;-72
2023/10/03 06:26:47;;;;;;;31.73;12.88;;;15.00;99.90;;;;;;5008571;28;20480;-72
2023/10/03 06:29:23;;;;;;;32.40;13.75;;;15.00;99.90;;;;;;5015145;28;20026;-72
2023/10/03 06:31:52;;;;;;;27.88;12.07;;;15.00;99.90;;;;;;5010210;28;20037;-73
2023/10/03 06:34:25;;;;;;;29.20;13.13;;;15.10;99.90;;;;;;5007252;28;20022;-73
2023/10/03 06:36:56;;;;;;;30.38;13.02;;;15.20;99.90;;;;;;5007613;28;20172;-73
2023/10/03 06:39:22;;;;;;;31.63;13.63;;;15.20;99.90;;;;;;5005865;28;20109;-72
2023/10/03 06:41:47;;;;;;;32.40;14.50;;;15.20;99.90;;;;;;5007002;28;20160;-73
2023/10/03 06:44:14;;;;;;;38.15;15.02;;;15.30;99.90;;;;;;5003757;28;20384;-73
2023/10/03 06:46:49;;;;;;;30.23;13.52;;;15.40;99.90;;;;;;5004837;28;20057;-73
2023/10/03 06:49:17;;;;;;;28.77;13.57;;;15.40;99.90;;;;;;5004635;28;20044;-72
2023/10/03 06:51:43;;;;;;;27.65;12.93;;;15.50;99.90;;;;;;5008236;28;20033;-72
2023/10/03 06:54:09;;;;;;;27.25;12.18;;;15.50;99.90;;;;;;5009446;28;20022;-73
2023/10/03 06:56:34;;;;;;;26.80;11.93;;;15.60;99.90;;;;;;5007649;28;20033;-72
2023/10/03 06:59:00;;;;;;;30.63;13.10;;;15.70;99.90;;;;;;5004759;28;20080;-72
2023/10/03 07:01:26;;;;;;;29.50;12.20;;;15.80;99.90;;;;;;5007437;28;20032;-72
2023/10/03 07:03:56;;;;;;;27.20;11.88;;;15.80;99.90;;;;;;5025751;28;20532;-72
2023/10/03 07:06:22;;;;;;;25.55;12.05;;;15.90;99.90;;;;;;5004095;28;20385;-72
2023/10/03 07:08:48;;;;;;;28.42;11.90;;;16.00;99.90;;;;;;5004936;28;20026;-72
2023/10/03 07:11:16;;;;;;;22.52;11.07;;;16.10;99.90;;;;;;5006528;28;20026;-73
2023/10/03 07:13:43;;;;;;;21.42;10.63;;;16.20;99.90;;;;;;5009068;28;20018;-72
2023/10/03 07:16:11;;;;;;;23.23;10.68;;;16.20;99.90;;;;;;5009655;28;20030;-72
2023/10/03 07:18:39;;;;;;;21.15;10.30;;;16.40;99.90;;;;;;5004162;28;20029;-72
2023/10/03 07:21:08;;;;;;;22.58;9.88;;;16.40;99.90;;;;;;5002839;28;20026;-72
2023/10/03 07:23:38;;;;;;;22.17;9.93;;;16.60;99.90;;;;;;5006804;28;20109;-71
2023/10/03 07:26:04;;;;;;;20.02;9.77;;;16.70;99.90;;;;;;5008979;28;20022;-71
2023/10/03 07:28:31;;;;;;;20.25;9.05;;;16.80;99.90;;;;;;5007509;28;20034;-71
2023/10/03 07:31:00;;;;;;;20.30;9.55;;;17.00;99.90;;;;;;5012835;28;20037;-71
2023/10/03 07:33:26;;;;;;;21.38;10.15;;;17.10;99.90;;;;;;5008998;28;20026;-72
2023/10/03 07:36:02;;;;;;;22.85;10.07;;;17.20;99.90;;;;;;5013491;28;20038;-72
2023/10/03 07:38:30;;;;;;;22.25;9.10;;;17.40;99.90;;;;;;5008062;28;20125;-72
2023/10/03 07:41:04;;;;;;;24.15;9.48;;;17.50;99.90;;;;;;5010044;28;20045;-72
2023/10/03 07:43:30;;;;;;;20.80;9.68;;;17.60;99.90;;;;;;5010313;28;20779;-72
2023/10/03 07:45:55;;;;;;;19.38;8.70;;;17.80;99.90;;;;;;5012299;28;20069;-72
2023/10/03 07:48:21;;;;;;;17.48;8.82;;;17.90;99.90;;;;;;5012252;28;20032;-71
2023/10/03 07:50:53;;;;;;;17.05;7.85;;;18.10;99.90;;;;;;5009241;28;20021;-71
2023/10/03 07:53:19;;;;;;;14.63;7.35;;;18.20;99.90;;;;;;5009054;28;20156;-72
2023/10/03 07:55:44;;;;;;;13.27;6.38;;;18.40;99.90;;;;;;5009727;28;20081;-71
2023/10/03 07:58:27;;;;;;;13.20;6.65;;;18.50;99.90;;;;;;5010275;28;20049;-71
2023/10/03 08:00:59;;;;;;;14.00;6.00;;;18.70;99.90;;;;;;5026233;28;20045;-72
2023/10/03 08:03:28;;;;;;;10.77;6.05;;;18.80;99.90;;;;;;5010115;28;20026;-72
2023/10/03 08:05:57;;;;;;;13.60;6.25;;;19.00;99.90;;;;;;5007435;28;20018;-72
2023/10/03 08:08:22;;;;;;;11.05;5.28;;;19.10;99.90;;;;;;5010689;28;20389;-72
2023/10/03 08:10:50;;;;;;;14.73;5.82;;;19.40;99.90;;;;;;5006483;28;20037;-72
2023/10/03 08:13:17;;;;;;;13.85;5.80;;;19.60;99.90;;;;;;5006210;28;20026;-72
2023/10/03 08:15:46;;;;;;;9.35;4.63;;;19.70;99.90;;;;;;5008760;28;20112;-72
2023/10/03 08:18:17;;;;;;;7.15;3.85;;;19.90;99.90;;;;;;5009947;28;20025;-72
2023/10/03 08:20:44;;;;;;;6.38;3.58;;;20.20;99.50;;;;;;5011593;28;20022;-73
2023/10/03 08:23:09;;;;;;;8.07;4.07;;;20.50;99.10;;;;;;5010249;28;20101;-72
2023/10/03 08:25:35;;;;;;;8.27;4.35;;;20.70;98.70;;;;;;5013431;28;20156;-72
2023/10/03 08:28:01;;;;;;;11.20;4.43;;;20.90;97.90;;;;;;5010848;28;20124;-72
2023/10/03 08:30:35;;;;;;;8.25;4.05;;;21.20;97.00;;;;;;5013552;28;20065;-72
2023/10/03 08:33:04;;;;;;;8.40;4.03;;;21.40;96.60;;;;;;5012516;28;20034;-72
2023/10/03 08:35:40;;;;;;;9.93;3.83;;;21.60;96.20;;;;;;5006539;28;20112;-73
2023/10/03 08:38:11;;;;;;;8.98;4.07;;;21.70;96.20;;;;;;5007346;28;20488;-72
2023/10/03 08:40:39;;;;;;;6.93;4.05;;;21.80;96.00;;;;;;4992387;28;20120;-72
2023/10/03 08:43:12;;;;;;;7.40;3.75;;;21.90;95.50;;;;;;4998312;28;20026;-72
2023/10/03 08:46:09;;;;;;;11.68;4.65;;;22.10;95.10;;;;;;5007502;28;20105;-72
2023/10/03 08:48:34;;;;;;;7.07;3.45;;;22.30;94.10;;;;;;5007625;28;20044;-71
2023/10/03 08:51:03;;;;;;;8.77;4.30;;;22.50;94.00;;;;;;5002751;28;20026;-71
2023/10/03 08:53:31;;;;;;;8.30;4.13;;;22.60;93.50;;;;;;5006115;28;20550;-72
2023/10/03 08:56:03;;;;;;;7.18;4.45;;;22.80;93.40;;;;;;5023216;22;20037;-75
2023/10/03 08:58:35;;;;;;;9.32;4.20;;;22.90;92.90;;;;;;5048713;28;20033;-76
2023/10/03 09:01:03;;;;;;;5.63;3.47;;;23.00;92.80;;;;;;5047408;28;20029;-74
2023/10/03 09:03:47;;;;;;;6.13;3.72;;;23.00;92.70;;;;;;5048669;28;20235;-76
2023/10/03 09:06:23;;;;;;;;;;;23.10;92.20;;;;;;5047261;28;20028;-74
2023/10/03 09:11:51;;;;;;;7.18;4.07;;;23.30;91.80;;;;;;5047489;28;20032;-74
2023/10/03 09:14:22;;;;;;;9.27;4.05;;;23.40;91.50;;;;;;5048179;28;20025;-78
2023/10/03 09:17:03;;;;;;;7.72;3.95;;;23.50;91.10;;;;;;5044212;28;20372;-76
2023/10/03 09:19:50;;;;;;;8.07;4.38;;;23.60;90.90;;;;;;5047927;28;20579;-77
2023/10/03 09:22:36;;;;;;;7.78;3.90;;;23.70;90.90;;;;;;5041569;28;20029;-78
2023/10/03 09:25:02;;;;;;;6.88;3.97;;;23.70;91.00;;;;;;5054291;28;20174;-75
2023/10/03 09:27:31;;;;;;;7.07;3.80;;;23.80;90.90;;;;;;5044147;28;20025;-75
2023/10/03 09:29:59;;;;;;;8.98;4.22;;;23.90;90.80;;;;;;5046292;28;20029;-75
2023/10/03 09:32:25;;;;;;;7.57;3.75;;;24.00;90.80;;;;;;5048779;28;20116;-77
2023/10/03 09:35:09;;;;;;;9.13;4.88;;;24.10;90.60;;;;;;5044710;28;20597;-75
2023/10/03 09:37:43;;;;;;;11.85;4.85;;;24.20;90.20;;;;;;5046867;28;20025;-76
2023/10/03 09:40:16;;;;;;;8.40;4.47;;;24.30;90.00;;;;;;5064307;28;20067;-75
2023/10/03 09:42:48;;;;;;;9.32;4.78;;;24.40;89.70;;;;;;5051298;28;20074;-78
2023/10/03 09:45:27;;;;;;;10.50;4.28;;;24.50;89.40;;;;;;5041315;28;20025;-77
2023/10/03 09:48:06;;;;;;;9.98;4.53;;;24.60;88.90;;;;;;5054900;28;20052;-77
2023/10/03 09:50:35;;;;;;;10.63;5.68;;;24.60;88.90;;;;;;5057528;28;20059;-76
2023/10/03 09:53:01;;;;;;;8.48;4.78;;;24.70;89.00;;;;;;5059048;28;20380;-78
2023/10/03 09:55:41;;;;;;;7.20;3.85;;;24.80;88.20;;;;;;5056626;28;20040;-77
2023/10/03 09:58:07;;;;;;;7.57;4.60;;;24.90;87.50;;;;;;5056048;28;20028;-78
2023/10/03 10:00:40;;;;;;;8.90;4.38;;;24.90;87.70;;;;;;5057453;28;20052;-77
2023/10/03 10:03:19;;;;;;;9.50;4.18;;;25.00;87.50;;;;;;5051825;28;20025;-76
2023/10/03 10:06:21;;;;;;;8.95;4.70;;;25.00;87.20;;;;;;5047174;28;20024;-77
2023/10/03 10:09:13;;;;;;;6.80;4.20;;;25.10;87.50;;;;;;5035605;28;20032;-77
2023/10/03 10:12:10;;;;;;;10.88;5.03;;;25.20;86.90;;;;;;5051664;28;20487;-76
2023/10/03 10:15:00;;;;;;;9.80;3.90;;;25.30;86.80;;;;;;5051353;28;20040;-77
2023/10/03 10:18:00;;;;;;;7.28;4.45;;;25.40;86.80;;;;;;5067613;28;20029;-76
2023/10/03 10:20:38;;;;;;;7.80;4.57;;;25.50;85.80;;;;;;5051249;28;20024;-78
2023/10/03 10:23:06;;;;;;;7.63;4.25;;;25.60;85.80;;;;;;5055209;28;20040;-76
2023/10/03 10:25:56;;;;;;;8.20;4.50;;;25.70;85.50;;;;;;5046772;28;20040;-77
2023/10/03 10:28:32;;;;;;;8.40;4.00;;;25.80;85.70;;;;;;5049726;28;20022;-78
2023/10/03 10:31:22;;;;;;;6.53;4.10;;;26.00;84.80;;;;;;5055449;28;20025;-78
2023/10/03 10:34:20;;;;;;;7.72;4.38;;;26.00;84.40;;;;;;5056438;28;20033;-78
2023/10/03 10:36:57;;;;;;;7.90;4.60;;;26.10;84.10;;;;;;5061040;28;20058;-78
2023/10/03 10:39:42;;;;;;;9.07;4.32;;;26.10;84.60;;;;;;5051803;28;20045;-78
2023/10/03 10:42:09;;;;;;;7.03;3.70;;;26.30;83.70;;;;;;5052102;28;20021;-78
2023/10/03 10:44:35;;;;;;;8.00;4.03;;;26.40;82.90;;;;;;5050662;28;20495;-77
2023/10/03 10:47:07;;;;;;;8.10;4.13;;;26.40;82.80;;;;;;5050331;28;20035;-77
2023/10/03 10:49:36;;;;;;;9.07;4.35;;;26.50;82.50;;;;;;5057977;28;20036;-79
2023/10/03 10:52:13;;;;;;;8.73;3.88;;;26.50;82.80;;;;;;5059834;28;20085;-77
2023/10/03 10:54:42;;;;;;;7.57;4.70;;;26.50;83.00;;;;;;5071779;28;20036;-78
2023/10/03 10:57:19;;;;;;;8.80;4.43;;;26.50;83.30;;;;;;5053937;28;20382;-77
2023/10/03 10:59:47;;;;;;;9.60;4.15;;;26.50;83.80;;;;;;5052853;28;20431;-79
2023/10/03 11:02:16;;;;;;;9.68;4.10;;;26.50;83.80;;;;;;5052388;28;20417;-77
2023/10/03 11:04:43;;;;;;;9.13;4.57;;;26.50;84.00;;;;;;5045441;28;20053;-76
2023/10/03 11:07:09;;;;;;;7.60;4.40;;;26.60;84.30;;;;;;5051038;28;20033;-78
2023/10/03 11:09:38;;;;;;;6.97;4.05;;;26.50;84.20;;;;;;5053791;28;20148;-77
2023/10/03 11:12:06;;;;;;;8.50;4.15;;;26.60;84.10;;;;;;5050934;28;20040;-76
2023/10/03 11:14:33;;;;;;;7.25;4.32;;;26.60;84.00;;;;;;5059129;28;20070;-78
2023/10/03 11:17:02;;;;;;;7.43;3.95;;;26.60;84.50;;;;;;5062303;28;20023;-78
2023/10/03 11:19:31;;;;;;;7.72;4.03;;;26.60;84.70;;;;;;5055095;28;20104;-77
2023/10/03 11:21:57;;;;;;;7.25;3.75;;;26.60;84.90;;;;;;5058210;28;20083;-77
2023/10/03 11:24:24;;;;;;;9.48;4.40;;;26.60;84.90;;;;;;5048742;28;20025;-76
2023/10/03 11:26:57;;;;;;;7.93;4.00;;;26.50;85.10;;;;;;5046717;28;20146;-76
2023/10/03 11:29:45;;;;;;;8.52;4.70;;;26.50;85.20;;;;;;5045514;28;20368;-77
2023/10/03 11:32:32;;;;;;;11.02;4.40;;;26.50;85.30;;;;;;5044429;28;20021;-76
2023/10/03 11:35:12;;;;;;;8.07;4.18;;;26.60;85.20;;;;;;5037779;28;20094;-75
2023/10/03 11:37:45;;;;;;;8.38;4.10;;;26.60;85.50;;;;;;5042010;28;20029;-77
2023/10/03 11:40:23;;;;;;;8.40;4.20;;;26.50;85.70;;;;;;5046583;28;20632;-75
2023/10/03 11:43:04;;;;;;;8.82;4.38;;;26.60;86.20;;;;;;5037970;28;20065;-77
2023/10/03 11:45:33;;;;;;;10.77;4.35;;;26.60;86.00;;;;;;5047631;28;20029;-77
2023/10/03 11:47:59;;;;;;;9.80;4.75;;;26.70;85.80;;;;;;5044540;28;20029;-77
2023/10/03 11:50:25;;;;;;;9.13;4.57;;;26.60;85.80;;;;;;5044422;28;20078;-75
2023/10/03 11:52:56;;;;;;;6.88;4.38;;;26.60;85.40;;;;;;5038179;28;20029;-76
2023/10/03 11:55:23;;;;;;;7.18;4.53;;;26.50;85.60;;;;;;5049534;28;20025;-76
2023/10/03 11:57:49;;;;;;;7.38;4.22;;;26.50;86.10;;;;;;5045674;28;20036;-76
2023/10/03 12:00:15;;;;;;;8.45;4.47;;;26.50;86.40;;;;;;5054474;28;20025;-77
2023/10/03 12:02:48;;;;;;;9.85;4.55;;;26.40;86.50;;;;;;5049756;28;20078;-76
2023/10/03 12:05:14;;;;;;;7.90;4.57;;;26.40;86.60;;;;;;5052662;28;20021;-77
2023/10/03 12:07:45;;;;;;;9.10;4.28;;;26.40;86.70;;;;;;5053527;28;20044;-76
2023/10/03 12:10:12;;;;;;;9.50;4.75;;;26.40;86.80;;;;;;5053926;28;20114;-76
2023/10/03 12:12:47;;;;;;;10.07;4.68;;;26.30;87.20;;;;;;5047493;28;20061;-77
2023/10/03 12:15:13;;;;;;;7.95;4.45;;;26.30;87.30;;;;;;5053392;28;20029;-77
2023/10/03 12:17:39;;;;;;;9.73;5.18;;;26.20;87.60;;;;;;5054477;28;20054;-78
2023/10/03 12:20:06;;;;;;;8.63;4.70;;;26.20;87.40;;;;;;5054017;28;20099;-73
2023/10/03 12:22:32;;;;;;;9.00;4.55;;;26.20;87.50;;;;;;5051290;28;20068;-78
2023/10/03 12:24:57;;;;;;;8.65;5.18;;;26.20;87.70;;;;;;5056462;28;20029;-75
2023/10/03 12:27:23;;;;;;;9.98;5.10;;;26.20;87.70;;;;;;5054505;28;20082;-76
2023/10/03 12:29:52;;;;;;;8.00;4.40;;;26.30;87.20;;;;;;5051266;28;20123;-74
2023/10/03 12:32:17;;;;;;;9.82;4.43;;;26.20;86.80;;;;;;5059165;28;20060;-76
2023/10/03 12:34:43;;;;;;;8.75;4.85;;;26.20;87.00;;;;;;5056452;28;20044;-75
2023/10/03 12:37:11;;;;;;;11.02;4.65;;;26.30;87.10;;;;;;5061007;28;20025;-77
2023/10/03 12:39:37;;;;;;;7.25;5.20;;;26.30;87.30;;;;;;5058128;28;20025;-77
2023/10/03 12:42:05;;;;;;;8.98;5.53;;;26.30;87.60;;;;;;5066913;28;20017;-77
2023/10/03 12:44:33;;;;;;;7.15;5.10;;;26.30;87.80;;;;;;5062174;28;20041;-78
2023/10/03 12:46:59;;;;;;;9.13;5.28;;;26.20;88.00;;;;;;5059323;28;20086;-78
2023/10/03 12:49:31;;;;;;;12.65;5.72;;;26.10;88.30;;;;;;5061506;28;20029;-77
2023/10/03 12:52:02;;;;;;;9.50;5.38;;;26.00;89.10;;;;;;5062148;28;20028;-78
2023/10/03 12:54:28;;;;;;;10.68;5.45;;;25.90;88.80;;;;;;5063319;28;20032;-76
2023/10/03 12:56:59;;;;;;;12.25;5.25;;;25.80;89.10;;;;;;5060924;28;20033;-76
2023/10/03 12:59:28;;;;;;;11.27;5.47;;;25.70;89.70;;;;;;5055208;28;20100;-75